Time;durP1;ratioP1;P1;durP2;ratioP2;P2;SDS_P1;SDS_P2;PMS_P1;PMS_P2;Temp;Humidity;BMP_temperature;BMP_pressure;BME280_temperature;BME280_humidity;BME280_pressure;Samples;Min_cycle;Max_cycle;Signal;HPM_P1;HPM_P2
2021/05/24 00:01:26;;;;;;;1.77;1.37;;;;;;;;;;5051146;28;20966;-53
2021/05/24 00:03:52;;;;;;;1.57;1.47;;;;;;;;;;5051153;28;20394;-53
2021/05/24 00:06:18;;;;;;;1.73;1.63;;;;;;;;;;5051066;28;20409;-52
2021/05/24 00:08:44;;;;;;;1.67;1.57;;;;;;;;;;5050880;28;20421;-53
2021/05/24 00:11:10;;;;;;;1.80;1.70;;;;;;;;;;5051384;28;20428;-52
2021/05/24 00:13:44;;;;;;;1.70;1.60;;;;;;;;;;5050608;28;20456;-53
2021/05/24 00:16:10;;;;;;;2.77;1.50;;;;;;;;;;5051109;28;20405;-53
2021/05/24 00:18:36;;;;;;;2.23;1.27;;;;;;;;;;5050650;28;20426;-52
2021/05/24 00:21:02;;;;;;;1.30;1.20;;;;;;;;;;5050836;28;20397;-52
2021/05/24 00:23:28;;;;;;;1.53;1.43;;;;;;;;;;5050547;28;20417;-52
2021/05/24 00:25:55;;;;;;;5.30;1.77;;;;;;;;;;5050279;28;20401;-52
2021/05/24 00:28:21;;;;;;;3.90;1.70;;;;;;;;;;5050640;28;20512;-53
2021/05/24 00:30:49;;;;;;;1.50;1.40;;;;;;;;;;5050773;28;20607;-51
2021/05/24 00:33:15;;;;;;;1.60;1.50;;;;;;;;;;5050309;28;20401;-52
2021/05/24 00:35:41;;;;;;;3.37;1.67;;;;;;;;;;5050581;28;20435;-52
2021/05/24 00:38:08;;;;;;;3.90;1.43;;;;;;;;;;5050602;28;20504;-51
2021/05/24 00:40:34;;;;;;;1.67;1.57;;;;;;;;;;5050577;28;21063;-52
2021/05/24 00:43:01;;;;;;;1.33;1.23;;;;;;;;;;5050353;28;20917;-53
2021/05/24 00:45:27;;;;;;;1.60;1.50;;;;;;;;;;5050521;28;20542;-53
2021/05/24 00:47:53;;;;;;;1.40;1.30;;;;;;;;;;5050195;28;20960;-52
2021/05/24 00:50:20;;;;;;;1.73;1.63;;;;;;;;;;5050382;28;20524;-53
2021/05/24 00:52:46;;;;;;;1.50;1.27;;;;;;;;;;5050307;28;20473;-52
2021/05/24 00:55:12;;;;;;;2.50;1.43;;;;;;;;;;5050264;28;20470;-52
2021/05/24 00:57:39;;;;;;;3.60;1.40;;;;;;;;;;5050398;28;20985;-52
2021/05/24 01:00:06;;;;;;;1.90;1.43;;;;;;;;;;5050480;28;20908;-52
2021/05/24 01:02:32;;;;;;;2.50;1.50;;;;;;;;;;5049319;28;20405;-52
2021/05/24 01:04:58;;;;;;;1.60;1.20;;;;;;;;;;5049989;28;20404;-52
2021/05/24 01:07:25;;;;;;;2.00;1.30;;;;;;;;;;5050116;28;20429;-52
2021/05/24 01:09:51;;;;;;;1.67;1.40;;;;;;;;;;5050406;28;20404;-52
2021/05/24 01:12:17;;;;;;;2.60;1.33;;;;;;;;;;5049923;28;20405;-52
2021/05/24 01:14:43;;;;;;;1.60;1.50;;;;;;;;;;5050308;28;20448;-52
2021/05/24 01:17:09;;;;;;;1.63;1.53;;;;;;;;;;5049997;28;20528;-52
2021/05/24 01:19:42;;;;;;;4.50;1.47;;;;;;;;;;5050372;28;20429;-52
2021/05/24 01:22:14;;;;;;;2.10;1.40;;;;;;;;;;5048918;28;20419;-52
2021/05/24 01:24:40;;;;;;;1.40;1.30;;;;;;;;;;5050521;28;20431;-53
2021/05/24 01:27:06;;;;;;;1.30;1.20;;;;;;;;;;5050136;28;20498;-53
2021/05/24 01:29:32;;;;;;;2.40;1.63;;;;;;;;;;5050485;28;20411;-53
2021/05/24 01:31:58;;;;;;;2.13;1.33;;;;;;;;;;5050044;28;20407;-53
2021/05/24 01:34:24;;;;;;;2.90;1.37;;;;;;;;;;5049946;28;20458;-54
2021/05/24 01:36:51;;;;;;;2.40;1.27;;;;;;;;;;5051695;28;20431;-53
2021/05/24 01:39:19;;;;;;;1.90;1.17;;;;;;;;;;5053975;28;20396;-54
2021/05/24 01:41:45;;;;;;;1.50;1.40;;;;;;;;;;5054059;28;20405;-53
2021/05/24 01:44:11;;;;;;;1.70;1.60;;;;;;;;;;5053856;28;20948;-53
2021/05/24 01:46:37;;;;;;;1.40;1.30;;;;;;;;;;5053941;28;20512;-53
2021/05/24 01:49:04;;;;;;;2.77;1.10;;;;;;;;;;5053875;28;20541;-53
2021/05/24 01:51:30;;;;;;;1.77;1.37;;;;;;;;;;5054040;28;20526;-51
2021/05/24 01:53:56;;;;;;;1.93;1.50;;;;;;;;;;5053672;28;21008;-53
2021/05/24 01:56:22;;;;;;;2.00;1.73;;;;;;;;;;5053803;28;20488;-53
2021/05/24 01:58:48;;;;;;;1.23;1.13;;;;;;;;;;5053487;28;20527;-52
2021/05/24 02:01:14;;;;;;;2.17;1.20;;;;;;;;;;5053339;28;20793;-52
2021/05/24 02:03:40;;;;;;;1.40;1.30;;;;;;;;;;5053490;28;20401;-52
2021/05/24 02:06:06;;;;;;;2.03;1.30;;;;;;;;;;5053350;28;20408;-52
2021/05/24 02:08:33;;;;;;;1.57;1.47;;;;;;;;;;5053345;28;20767;-52
2021/05/24 02:11:00;;;;;;;1.40;1.30;;;;;;;;;;5053150;28;20431;-52
2021/05/24 02:13:30;;;;;;;1.43;1.30;;;;;;;;;;5052984;28;20496;-53
2021/05/24 02:15:56;;;;;;;3.00;1.40;;;;;;;;;;5053031;28;20871;-53
2021/05/24 02:18:22;;;;;;;1.30;1.20;;;;;;;;;;5053076;28;20426;-53
2021/05/24 02:20:48;;;;;;;1.30;1.20;;;;;;;;;;5053012;28;20427;-53
2021/05/24 02:23:14;;;;;;;3.10;1.30;;;;;;;;;;5052873;28;20758;-52
2021/05/24 02:25:40;;;;;;;1.60;1.50;;;;;;;;;;5053019;28;20434;-52
2021/05/24 02:28:06;;;;;;;1.93;1.53;;;;;;;;;;5052727;28;20419;-52
2021/05/24 02:30:34;;;;;;;1.73;1.43;;;;;;;;;;5053106;28;20427;-53
2021/05/24 02:33:00;;;;;;;1.73;1.30;;;;;;;;;;5052516;28;20980;-52
2021/05/24 02:35:27;;;;;;;2.90;1.53;;;;;;;;;;5052828;28;20455;-53
2021/05/24 02:37:54;;;;;;;2.97;1.40;;;;;;;;;;5052669;28;20423;-53
2021/05/24 02:40:21;;;;;;;1.47;1.37;;;;;;;;;;5052794;28;20775;-52
2021/05/24 02:42:49;;;;;;;2.60;1.30;;;;;;;;;;5052349;28;20401;-53
2021/05/24 02:45:16;;;;;;;4.67;1.67;;;;;;;;;;5052607;28;20406;-52
2021/05/24 02:47:42;;;;;;;2.60;1.50;;;;;;;;;;5052094;28;20451;-52
2021/05/24 02:50:09;;;;;;;2.13;1.40;;;;;;;;;;5052240;28;20806;-53
2021/05/24 02:52:36;;;;;;;1.40;1.30;;;;;;;;;;5052316;28;20455;-53
2021/05/24 02:55:02;;;;;;;3.17;1.40;;;;;;;;;;5052164;28;20460;-53
2021/05/24 02:57:28;;;;;;;1.63;1.50;;;;;;;;;;5052326;28;20421;-53
2021/05/24 02:59:54;;;;;;;2.33;1.50;;;;;;;;;;5052325;28;21046;-52
2021/05/24 03:02:26;;;;;;;1.80;1.40;;;;;;;;;;5052084;28;20414;-52
2021/05/24 03:04:52;;;;;;;2.63;1.40;;;;;;;;;;5052307;28;20434;-53
2021/05/24 03:07:18;;;;;;;3.70;1.40;;;;;;;;;;5052223;28;20425;-53
2021/05/24 03:09:44;;;;;;;1.30;1.20;;;;;;;;;;5051933;28;20946;-53
2021/05/24 03:12:10;;;;;;;2.40;1.30;;;;;;;;;;5052264;28;20401;-53
2021/05/24 03:14:36;;;;;;;2.70;1.37;;;;;;;;;;5051806;28;20463;-52
2021/05/24 03:17:02;;;;;;;1.53;1.43;;;;;;;;;;5051972;28;20434;-54
2021/05/24 03:19:28;;;;;;;3.20;1.40;;;;;;;;;;5052052;28;20400;-54
2021/05/24 03:21:54;;;;;;;1.87;1.30;;;;;;;;;;5051713;28;20908;-53
2021/05/24 03:24:20;;;;;;;1.40;1.30;;;;;;;;;;5051799;28;21034;-53
2021/05/24 03:26:46;;;;;;;2.93;1.80;;;;;;;;;;5051921;28;20407;-52
2021/05/24 03:29:12;;;;;;;3.70;1.40;;;;;;;;;;5051746;28;20799;-52
2021/05/24 03:31:38;;;;;;;2.50;1.47;;;;;;;;;;5051526;28;20450;-52
2021/05/24 03:34:04;;;;;;;5.63;1.40;;;;;;;;;;5051636;28;20921;-52
2021/05/24 03:36:30;;;;;;;1.27;1.17;;;;;;;;;;5051574;28;20401;-52
2021/05/24 03:38:56;;;;;;;1.20;1.10;;;;;;;;;;5051596;28;20921;-53
2021/05/24 03:41:22;;;;;;;2.20;1.20;;;;;;;;;;5051309;28;20896;-53
2021/05/24 03:43:48;;;;;;;1.40;1.30;;;;;;;;;;5051476;28;20826;-52
2021/05/24 03:46:14;;;;;;;1.90;1.53;;;;;;;;;;5051490;28;20480;-53
2021/05/24 03:48:41;;;;;;;1.43;1.17;;;;;;;;;;5051405;28;20466;-53
2021/05/24 03:51:08;;;;;;;1.27;1.17;;;;;;;;;;5051469;28;20407;-52
2021/05/24 03:53:34;;;;;;;0.97;0.97;;;;;;;;;;5051170;28;21024;-54
2021/05/24 03:56:00;;;;;;;2.87;1.30;;;;;;;;;;5051525;28;20752;-52
2021/05/24 03:58:27;;;;;;;4.33;1.93;;;;;;;;;;5051186;28;20908;-52
2021/05/24 04:00:53;;;;;;;1.73;1.40;;;;;;;;;;5050570;28;20443;-52
2021/05/24 04:03:19;;;;;;;5.37;1.40;;;;;;;;;;5050835;28;20436;-53
2021/05/24 04:05:47;;;;;;;2.43;1.40;;;;;;;;;;5051247;28;20404;-52
2021/05/24 04:08:14;;;;;;;1.60;1.10;;;;;;;;;;5051097;28;20421;-52
2021/05/24 04:10:49;;;;;;;1.47;1.23;;;;;;;;;;5051124;28;20396;-54
2021/05/24 04:13:16;;;;;;;2.00;1.10;;;;;;;;;;5050926;28;20405;-52
2021/05/24 04:15:45;;;;;;;1.30;1.20;;;;;;;;;;5050989;28;21030;-53
2021/05/24 04:18:15;;;;;;;3.03;1.80;;;;;;;;;;5050891;28;20477;-52
2021/05/24 04:20:42;;;;;;;1.47;1.20;;;;;;;;;;5050915;28;20751;-52
2021/05/24 04:23:08;;;;;;;1.53;1.30;;;;;;;;;;5050684;28;20478;-52
2021/05/24 04:25:34;;;;;;;1.73;1.40;;;;;;;;;;5050750;28;20876;-53
2021/05/24 04:28:00;;;;;;;2.80;1.60;;;;;;;;;;5050755;28;20429;-52
2021/05/24 04:30:26;;;;;;;2.17;1.00;;;;;;;;;;5050769;28;20499;-52
2021/05/24 04:32:52;;;;;;;2.40;1.43;;;;;;;;;;5050457;28;20486;-52
2021/05/24 04:35:18;;;;;;;2.97;1.57;;;;;;;;;;5050552;28;20471;-52
2021/05/24 04:37:44;;;;;;;4.00;1.83;;;;;;;;;;5050658;28;20425;-52
2021/05/24 04:40:10;;;;;;;1.10;1.00;;;;;;;;;;5050682;28;20484;-53
2021/05/24 04:42:36;;;;;;;2.33;1.27;;;;;;;;;;5050196;28;20765;-52
2021/05/24 04:45:03;;;;;;;2.23;1.20;;;;;;;;;;5050614;28;20419;-53
2021/05/24 04:47:29;;;;;;;1.03;0.93;;;;;;;;;;5050149;28;20786;-53
2021/05/24 04:49:55;;;;;;;1.83;1.10;;;;;;;;;;5050651;28;20404;-55
2021/05/24 04:52:21;;;;;;;1.77;1.23;;;;;;;;;;5050236;28;20454;-54
2021/05/24 04:54:48;;;;;;;4.60;1.57;;;;;;;;;;5050608;28;20464;-54
2021/05/24 04:57:14;;;;;;;2.50;1.20;;;;;;;;;;5050245;28;21006;-54
2021/05/24 04:59:40;;;;;;;1.40;1.10;;;;;;;;;;5050460;28;20401;-52
2021/05/24 05:02:06;;;;;;;3.23;1.40;;;;;;;;;;5050092;28;20484;-52
2021/05/24 05:04:32;;;;;;;4.93;1.47;;;;;;;;;;5050400;28;20501;-53
2021/05/24 05:06:58;;;;;;;1.30;1.20;;;;;;;;;;5050336;28;20397;-53
2021/05/24 05:09:27;;;;;;;2.17;1.20;;;;;;;;;;5050246;28;20401;-52
2021/05/24 05:11:53;;;;;;;2.30;1.40;;;;;;;;;;5051660;28;20372;-53
2021/05/24 05:14:20;;;;;;;3.30;1.40;;;;;;;;;;5054126;28;20431;-54
2021/05/24 05:16:46;;;;;;;1.13;1.03;;;;;;;;;;5054233;28;20397;-53
2021/05/24 05:19:12;;;;;;;1.67;1.10;;;;;;;;;;5054094;28;20425;-53
2021/05/24 05:21:38;;;;;;;2.53;1.30;;;;;;;;;;5054082;28;20878;-53
2021/05/24 05:24:10;;;;;;;5.63;1.40;;;;;;;;;;5054067;28;20409;-54
2021/05/24 05:26:36;;;;;;;1.57;1.20;;;;;;;;;;5054159;28;20444;-53
2021/05/24 05:29:03;;;;;;;1.00;0.90;;;;;;;;;;5053924;28;20935;-53
2021/05/24 05:31:29;;;;;;;3.83;1.50;;;;;;;;;;5053878;28;20412;-53
2021/05/24 05:33:55;;;;;;;2.73;1.30;;;;;;;;;;5053932;28;21141;-53
2021/05/24 05:36:21;;;;;;;1.70;1.37;;;;;;;;;;5053880;28;20407;-53
2021/05/24 05:38:47;;;;;;;1.23;1.13;;;;;;;;;;5053913;28;20450;-54
2021/05/24 05:41:13;;;;;;;1.30;1.20;;;;;;;;;;5053609;28;20401;-53
2021/05/24 05:43:39;;;;;;;5.23;1.07;;;;;;;;;;5053778;28;20408;-53
2021/05/24 05:46:05;;;;;;;3.83;1.20;;;;;;;;;;5053647;28;20410;-53
2021/05/24 05:48:31;;;;;;;3.00;1.30;;;;;;;;;;5053659;28;20523;-53
2021/05/24 05:50:57;;;;;;;1.33;1.20;;;;;;;;;;5053630;28;20412;-53
2021/05/24 05:53:23;;;;;;;2.03;1.40;;;;;;;;;;5053398;28;20881;-54
2021/05/24 05:55:52;;;;;;;2.00;1.30;;;;;;;;;;5053569;28;20364;-54
2021/05/24 05:58:18;;;;;;;1.70;1.60;;;;;;;;;;5053487;28;20429;-53
2021/05/24 06:00:44;;;;;;;1.63;1.23;;;;;;;;;;5053663;28;20409;-53
2021/05/24 06:03:11;;;;;;;3.77;1.27;;;;;;;;;;5053199;28;20397;-53
2021/05/24 06:05:37;;;;;;;2.77;1.30;;;;;;;;;;5053559;28;20893;-53
2021/05/24 06:08:03;;;;;;;2.30;1.10;;;;;;;;;;5053263;28;20758;-54
2021/05/24 06:10:31;;;;;;;4.10;1.57;;;;;;;;;;5053367;28;20878;-53
2021/05/24 06:12:57;;;;;;;1.30;1.13;;;;;;;;;;5053047;28;20410;-54
2021/05/24 06:15:23;;;;;;;2.57;1.50;;;;;;;;;;5053243;28;20457;-53
2021/05/24 06:17:49;;;;;;;1.47;1.30;;;;;;;;;;5053153;28;20421;-53
2021/05/24 06:20:16;;;;;;;1.33;1.23;;;;;;;;;;5053401;28;20508;-53
2021/05/24 06:22:42;;;;;;;1.13;1.03;;;;;;;;;;5052340;28;20555;-53
2021/05/24 06:25:09;;;;;;;1.87;1.10;;;;;;;;;;5053014;28;20416;-53
2021/05/24 06:27:35;;;;;;;3.03;1.20;;;;;;;;;;5053194;28;20495;-53
2021/05/24 06:30:01;;;;;;;3.97;1.30;;;;;;;;;;5053176;28;20909;-52
2021/05/24 06:32:27;;;;;;;1.60;1.00;;;;;;;;;;5052775;28;20409;-53
2021/05/24 06:34:53;;;;;;;9.53;1.40;;;;;;;;;;5052633;28;21007;-53
2021/05/24 06:37:19;;;;;;;2.00;1.23;;;;;;;;;;5052880;28;20421;-53
2021/05/24 06:39:45;;;;;;;5.30;1.03;;;;;;;;;;5052786;28;20383;-53
2021/05/24 06:42:11;;;;;;;1.27;1.17;;;;;;;;;;5052396;28;20912;-52
2021/05/24 06:44:37;;;;;;;1.60;0.93;;;;;;;;;;5052479;28;20464;-52
2021/05/24 06:47:03;;;;;;;3.00;1.20;;;;;;;;;;5052460;28;20400;-53
2021/05/24 06:49:29;;;;;;;1.93;1.20;;;;;;;;;;5052622;28;20963;-53
2021/05/24 06:51:55;;;;;;;2.27;1.30;;;;;;;;;;5052301;28;20425;-53
2021/05/24 06:54:21;;;;;;;1.33;1.23;;;;;;;;;;5052359;28;20461;-53
2021/05/24 06:56:47;;;;;;;1.03;0.93;;;;;;;;;;5052283;28;20380;-53
2021/05/24 06:59:13;;;;;;;3.13;1.10;;;;;;;;;;5052342;28;20920;-53
2021/05/24 07:01:39;;;;;;;4.23;1.30;;;;;;;;;;5052100;28;20395;-54
2021/05/24 07:04:06;;;;;;;2.00;1.23;;;;;;;;;;5052399;28;20412;-52
2021/05/24 07:06:32;;;;;;;1.40;0.97;;;;;;;;;;5052177;28;20391;-52
2021/05/24 07:08:58;;;;;;;1.57;1.47;;;;;;;;;;5052439;28;20425;-53
2021/05/24 07:11:24;;;;;;;4.00;3.23;;;;;;;;;;5051801;28;20384;-53
2021/05/24 07:13:50;;;;;;;18.10;11.60;;;;;;;;;;5052043;28;20448;-53
2021/05/24 07:16:16;;;;;;;3.00;1.10;;;;;;;;;;5052149;28;20373;-53
2021/05/24 07:18:42;;;;;;;3.00;1.40;;;;;;;;;;5051920;28;20427;-52
2021/05/24 07:21:08;;;;;;;5.13;1.10;;;;;;;;;;5052029;28;20440;-53
2021/05/24 07:23:35;;;;;;;2.57;1.10;;;;;;;;;;5051531;28;20372;-53
2021/05/24 07:26:01;;;;;;;1.03;0.90;;;;;;;;;;5052128;28;20405;-53
2021/05/24 07:28:28;;;;;;;1.10;1.00;;;;;;;;;;5051781;28;20908;-52
2021/05/24 07:30:54;;;;;;;3.13;1.30;;;;;;;;;;5051874;28;20372;-53
2021/05/24 07:33:20;;;;;;;4.13;1.50;;;;;;;;;;5051437;28;20413;-53
2021/05/24 07:35:46;;;;;;;1.67;1.10;;;;;;;;;;5051682;28;20938;-53
2021/05/24 07:38:12;;;;;;;1.27;1.03;;;;;;;;;;5051482;28;20530;-53
2021/05/24 07:40:38;;;;;;;2.20;1.43;;;;;;;;;;5051687;28;20376;-54
2021/05/24 07:43:04;;;;;;;2.90;1.10;;;;;;;;;;5051254;28;20397;-53
2021/05/24 07:45:31;;;;;;;1.23;1.13;;;;;;;;;;5050247;28;20393;-53
2021/05/24 07:47:57;;;;;;;2.47;1.30;;;;;;;;;;5051376;28;21035;-53
2021/05/24 07:50:24;;;;;;;1.10;1.10;;;;;;;;;;5051362;28;20488;-54
2021/05/24 07:52:50;;;;;;;3.13;1.30;;;;;;;;;;5051114;28;20417;-54
2021/05/24 07:55:16;;;;;;;3.63;1.37;;;;;;;;;;5051214;28;20445;-53
2021/05/24 07:57:42;;;;;;;1.40;1.17;;;;;;;;;;5051264;28;20418;-53
2021/05/24 08:00:10;;;;;;;2.80;1.20;;;;;;;;;;5051238;28;20434;-52
2021/05/24 08:02:41;;;;;;;2.70;1.00;;;;;;;;;;5051157;28;20372;-53
2021/05/24 08:05:08;;;;;;;2.23;1.50;;;;;;;;;;5051212;28;20405;-52
2021/05/24 08:07:35;;;;;;;1.90;0.97;;;;;;;;;;5051276;28;20457;-53
2021/05/24 08:10:01;;;;;;;1.57;1.27;;;;;;;;;;5051477;28;20372;-52
2021/05/24 08:12:27;;;;;;;1.73;1.07;;;;;;;;;;5051245;28;20434;-53
2021/05/24 08:14:53;;;;;;;3.77;1.63;;;;;;;;;;5051311;28;20449;-53
2021/05/24 08:17:19;;;;;;;2.17;1.27;;;;;;;;;;5051161;28;20456;-54
2021/05/24 08:19:45;;;;;;;2.90;1.50;;;;;;;;;;5051203;28;20400;-53
2021/05/24 08:22:11;;;;;;;2.77;1.17;;;;;;;;;;5050567;28;20379;-53
2021/05/24 08:24:37;;;;;;;1.50;1.20;;;;;;;;;;5050908;28;20380;-53
2021/05/24 08:27:03;;;;;;;3.47;1.37;;;;;;;;;;5050801;28;20406;-54
2021/05/24 08:29:31;;;;;;;1.40;1.03;;;;;;;;;;5051087;28;20492;-53
2021/05/24 08:31:56;;;;;;;1.43;1.10;;;;;;;;;;5050504;28;20484;-53
2021/05/24 08:34:23;;;;;;;2.20;1.00;;;;;;;;;;5050662;28;20559;-53
2021/05/24 08:36:49;;;;;;;3.07;1.50;;;;;;;;;;5050514;28;21097;-55
2021/05/24 08:39:15;;;;;;;2.60;1.20;;;;;;;;;;5050668;28;20451;-53
2021/05/24 08:41:41;;;;;;;3.67;1.30;;;;;;;;;;5050722;28;20412;-52
2021/05/24 08:44:08;;;;;;;6.70;1.20;;;;;;;;;;5050503;28;20405;-54
2021/05/24 08:46:35;;;;;;;2.07;1.10;;;;;;;;;;5050120;28;20449;-54
2021/05/24 08:49:01;;;;;;;12.90;1.80;;;;;;;;;;5050329;28;20946;-54
2021/05/24 08:51:27;;;;;;;0.90;0.90;;;;;;;;;;5050129;28;20401;-52
2021/05/24 08:53:53;;;;;;;1.37;1.27;;;;;;;;;;5050255;28;20453;-54
2021/05/24 08:56:19;;;;;;;2.60;1.00;;;;;;;;;;5050459;28;20413;-54
2021/05/24 08:58:45;;;;;;;1.43;1.00;;;;;;;;;;5050234;28;20986;-55
2021/05/24 09:01:11;;;;;;;3.83;1.07;;;;;;;;;;5050521;28;20877;-54
2021/05/24 09:03:38;;;;;;;5.47;1.40;;;;;;;;;;5050019;28;20405;-55
2021/05/24 09:06:10;;;;;;;1.83;1.53;;;;;;;;;;5050428;28;20404;-53
2021/05/24 09:08:37;;;;;;;2.10;1.40;;;;;;;;;;5050468;28;20479;-54
2021/05/24 09:11:04;;;;;;;4.40;1.30;;;;;;;;;;5050374;28;20393;-53
2021/05/24 09:13:34;;;;;;;1.30;1.10;;;;;;;;;;5050120;28;20428;-53
2021/05/24 09:16:00;;;;;;;1.30;1.20;;;;;;;;;;5050289;28;20397;-53
2021/05/24 09:18:26;;;;;;;1.30;1.20;;;;;;;;;;5050173;28;20983;-54
2021/05/24 09:20:53;;;;;;;5.87;1.60;;;;;;;;;;5055440;28;20569;-54
2021/05/24 09:23:23;;;;;;;1.17;1.07;;;;;;;;;;5050037;28;20492;-55
2021/05/24 09:25:51;;;;;;;1.20;1.00;;;;;;;;;;5050108;28;20387;-54
2021/05/24 09:28:27;;;;;;;1.53;1.10;;;;;;;;;;5050200;28;20440;-54
2021/05/24 09:30:53;;;;;;;5.27;1.53;;;;;;;;;;5049994;28;20572;-53
2021/05/24 09:33:20;;;;;;;1.53;1.10;;;;;;;;;;5049961;28;20405;-54
2021/05/24 09:35:52;;;;;;;2.00;1.20;;;;;;;;;;5049923;28;20503;-53
2021/05/24 09:38:20;;;;;;;2.63;1.50;;;;;;;;;;5050248;28;20425;-54
2021/05/24 09:40:56;;;;;;;1.47;1.30;;;;;;;;;;5050093;28;20437;-54
2021/05/24 09:43:49;;;;;;;2.70;1.00;;;;;;;;;;5049625;28;20455;-53
2021/05/24 09:46:15;;;;;;;3.37;1.37;;;;;;;;;;5049013;28;20944;-53
2021/05/24 09:48:41;;;;;;;2.60;1.60;;;;;;;;;;5049686;28;20421;-54
2021/05/24 09:51:09;;;;;;;2.73;1.40;;;;;;;;;;5050649;28;20451;-53
2021/05/24 09:53:36;;;;;;;2.70;1.20;;;;;;;;;;5050710;28;20409;-54
2021/05/24 09:56:03;;;;;;;1.20;1.10;;;;;;;;;;5050834;28;20462;-55
2021/05/24 09:58:29;;;;;;;2.17;1.50;;;;;;;;;;5051100;28;20421;-54
2021/05/24 10:01:12;;;;;;;3.50;1.30;;;;;;;;;;5054167;28;20417;-54
2021/05/24 10:03:39;;;;;;;5.07;1.33;;;;;;;;;;5054306;28;20463;-53
2021/05/24 10:06:05;;;;;;;3.97;1.33;;;;;;;;;;5053547;28;20897;-53
2021/05/24 10:08:32;;;;;;;4.77;1.20;;;;;;;;;;5053311;28;20403;-53
2021/05/24 10:10:58;;;;;;;1.60;1.40;;;;;;;;;;5053292;28;20409;-54
2021/05/24 10:13:24;;;;;;;2.30;1.53;;;;;;;;;;5053195;28;20384;-53
2021/05/24 10:15:55;;;;;;;3.87;1.30;;;;;;;;;;5053084;28;20457;-54
2021/05/24 10:18:21;;;;;;;3.47;1.43;;;;;;;;;;5053160;28;20994;-54
2021/05/24 10:20:47;;;;;;;1.43;1.17;;;;;;;;;;5052894;28;20397;-54
2021/05/24 10:23:12;;;;;;;3.47;1.43;;;;;;;;;;5052919;28;20722;-54
2021/05/24 10:25:38;;;;;;;1.30;1.20;;;;;;;;;;5052959;28;20405;-53
2021/05/24 10:28:05;;;;;;;5.23;1.40;;;;;;;;;;5052951;28;21086;-54
2021/05/24 10:30:34;;;;;;;3.27;1.07;;;;;;;;;;5052866;28;20412;-55
2021/05/24 10:33:01;;;;;;;1.80;1.13;;;;;;;;;;5052501;28;20408;-53
2021/05/24 10:35:33;;;;;;;1.87;1.57;;;;;;;;;;5052590;28;20582;-53
2021/05/24 10:37:59;;;;;;;2.67;1.17;;;;;;;;;;5052508;28;20913;-55
2021/05/24 10:40:26;;;;;;;1.60;1.30;;;;;;;;;;5052778;28;20493;-53
2021/05/24 10:43:06;;;;;;;2.37;1.33;;;;;;;;;;5052413;28;20447;-54
2021/05/24 10:45:32;;;;;;;3.43;1.43;;;;;;;;;;5052746;28;20398;-54
2021/05/24 10:47:59;;;;;;;2.37;1.30;;;;;;;;;;5052276;28;20803;-53
2021/05/24 10:50:26;;;;;;;3.00;1.40;;;;;;;;;;5052627;28;20758;-54
2021/05/24 10:53:00;;;;;;;1.50;1.30;;;;;;;;;;5067592;28;20445;-53
2021/05/24 10:55:26;;;;;;;1.57;1.33;;;;;;;;;;5052539;28;20531;-53
2021/05/24 10:57:56;;;;;;;1.10;1.00;;;;;;;;;;5052201;28;20426;-53
2021/05/24 11:00:22;;;;;;;2.63;1.27;;;;;;;;;;5052259;28;20412;-53
2021/05/24 11:02:55;;;;;;;1.97;1.53;;;;;;;;;;5052181;28;20401;-51
2021/05/24 11:05:25;;;;;;;1.73;1.40;;;;;;;;;;5052217;28;20877;-54
2021/05/24 11:07:54;;;;;;;3.53;1.50;;;;;;;;;;5052295;28;20906;-54
2021/05/24 11:10:21;;;;;;;2.23;1.60;;;;;;;;;;5051772;28;20409;-54
2021/05/24 11:12:57;;;;;;;1.70;1.50;;;;;;;;;;5051952;28;20406;-52
2021/05/24 11:15:23;;;;;;;4.17;1.77;;;;;;;;;;5050731;28;20488;-52
2021/05/24 11:18:04;;;;;;;2.20;1.53;;;;;;;;;;5051771;28;20424;-49
2021/05/24 11:20:30;;;;;;;2.13;1.30;;;;;;;;;;5051911;28;20397;-50
2021/05/24 11:26:14;;;;;;;2.27;1.50;;;;;;;;;;5052412;28;20489;-49
2021/05/24 11:29:03;;;;;;;2.90;1.47;;;;;;;;;;5051954;28;20427;-49
2021/05/24 11:31:31;;;;;;;1.57;1.47;;;;;;;;;;5043519;28;20388;-48
2021/05/24 11:33:58;;;;;;;2.77;1.53;;;;;;;;;;5051624;28;20427;-48
2021/05/24 11:36:36;;;;;;;1.60;1.50;;;;;;;;;;5051942;28;20433;-51
2021/05/24 11:39:02;;;;;;;2.40;1.20;;;;;;;;;;5051754;28;20398;-51
2021/05/24 11:41:30;;;;;;;1.83;1.50;;;;;;;;;;5050278;28;20372;-50
2021/05/24 11:43:58;;;;;;;2.80;1.70;;;;;;;;;;5051520;28;20408;-51
2021/05/24 11:46:24;;;;;;;2.30;1.57;;;;;;;;;;5051379;28;20387;-51
2021/05/24 11:48:51;;;;;;;1.90;1.50;;;;;;;;;;5051676;28;20384;-52
2021/05/24 11:51:19;;;;;;;2.00;1.27;;;;;;;;;;5051592;28;20851;-51
2021/05/24 11:54:00;;;;;;;2.73;1.40;;;;;;;;;;5051559;28;20372;-51
2021/05/24 11:56:35;;;;;;;1.40;1.20;;;;;;;;;;5051545;28;20810;-51
2021/05/24 11:59:02;;;;;;;2.10;1.50;;;;;;;;;;5051337;28;20422;-52
2021/05/24 12:01:28;;;;;;;1.80;1.50;;;;;;;;;;5051186;28;20383;-52
2021/05/24 12:03:54;;;;;;;2.33;1.70;;;;;;;;;;5051455;28;20777;-52
2021/05/24 12:06:20;;;;;;;2.10;1.40;;;;;;;;;;5051437;28;20460;-51
2021/05/24 12:08:47;;;;;;;1.53;1.43;;;;;;;;;;5051541;28;20403;-51
2021/05/24 12:11:14;;;;;;;2.67;1.50;;;;;;;;;;5051000;28;20451;-51
2021/05/24 12:13:56;;;;;;;4.10;1.70;;;;;;;;;;5051190;28;20372;-51
2021/05/24 12:16:22;;;;;;;1.50;1.40;;;;;;;;;;5050956;28;20414;-51
2021/05/24 12:18:51;;;;;;;1.50;1.40;;;;;;;;;;5050969;28;20420;-51
2021/05/24 12:21:37;;;;;;;2.43;1.47;;;;;;;;;;5050090;28;20734;-51
2021/05/24 12:24:04;;;;;;;1.40;1.30;;;;;;;;;;5051027;28;20408;-51
2021/05/24 12:26:30;;;;;;;1.60;1.30;;;;;;;;;;5050905;28;20763;-51
2021/05/24 12:28:56;;;;;;;2.07;1.50;;;;;;;;;;5050808;28;20512;-51
2021/05/24 12:31:23;;;;;;;1.77;1.50;;;;;;;;;;5050718;28;20868;-51
2021/05/24 12:33:49;;;;;;;2.07;1.20;;;;;;;;;;5050539;28;20445;-51
2021/05/24 12:36:20;;;;;;;3.53;1.50;;;;;;;;;;5050575;28;20376;-51
2021/05/24 12:38:56;;;;;;;1.93;1.50;;;;;;;;;;5050690;28;20421;-52
2021/05/24 12:41:23;;;;;;;2.03;1.40;;;;;;;;;;5050553;28;20492;-51
2021/05/24 12:43:54;;;;;;;2.20;1.67;;;;;;;;;;5050613;28;20419;-51
2021/05/24 12:46:21;;;;;;;2.30;1.70;;;;;;;;;;5050316;28;20521;-51
2021/05/24 12:48:53;;;;;;;3.17;2.07;;;;;;;;;;5050466;28;20400;-51
2021/05/24 12:51:23;;;;;;;2.53;1.70;;;;;;;;;;5050377;28;20789;-51
2021/05/24 12:53:54;;;;;;;2.80;1.83;;;;;;;;;;5050472;28;20372;-51
2021/05/24 12:56:20;;;;;;;1.90;1.43;;;;;;;;;;5050488;28;20372;-51
2021/05/24 12:58:46;;;;;;;2.33;1.50;;;;;;;;;;5050478;28;20413;-51
2021/05/24 13:01:12;;;;;;;3.17;1.53;;;;;;;;;;5050406;28;20400;-52
2021/05/24 13:03:45;;;;;;;1.30;1.20;;;;;;;;;;5050399;28;20400;-52
2021/05/24 13:06:12;;;;;;;1.00;1.00;;;;;;;;;;5050725;28;20406;-51
2021/05/24 13:09:07;;;;;;;1.73;1.37;;;;;;;;;;5050267;28;20395;-52
2021/05/24 13:11:49;;;;;;;1.10;0.93;;;;;;;;;;5027587;28;21165;-52
2021/05/24 13:14:33;;;;;;;2.13;1.10;;;;;;;;;;5034108;28;20780;-51
2021/05/24 13:17:23;;;;;;;1.03;1.00;;;;;;;;;;5050410;28;20390;-52
2021/05/24 13:30:43;;;;;;;1.13;1.03;;;;;;;;;;5050388;28;20396;-52
2021/05/24 13:33:28;;;;;;;1.80;1.20;;;;;;;;;;5052064;28;20384;-52
2021/05/24 13:35:54;;;;;;;1.10;1.00;;;;;;;;;;5053925;28;20456;-52
2021/05/24 13:38:20;;;;;;;0.97;0.97;;;;;;;;;;5053892;28;20432;-51
2021/05/24 13:40:46;;;;;;;1.10;1.00;;;;;;;;;;5053799;28;20387;-51
2021/05/24 13:43:12;;;;;;;2.03;1.07;;;;;;;;;;5053798;28;20401;-51
2021/05/24 13:45:37;;;;;;;1.07;1.00;;;;;;;;;;5053956;28;20467;-51
2021/05/24 13:48:04;;;;;;;2.17;1.30;;;;;;;;;;5053509;28;20987;-51
2021/05/24 13:50:30;;;;;;;1.90;0.97;;;;;;;;;;5053947;28;20409;-51
2021/05/24 13:52:56;;;;;;;1.30;1.20;;;;;;;;;;5053486;28;20467;-51
2021/05/24 13:55:23;;;;;;;1.30;1.10;;;;;;;;;;5053654;28;20551;-51
2021/05/24 13:57:49;;;;;;;1.10;1.10;;;;;;;;;;5053584;28;20417;-52
2021/05/24 14:00:15;;;;;;;1.33;1.20;;;;;;;;;;5054132;28;20402;-52
2021/05/24 14:02:41;;;;;;;1.67;1.13;;;;;;;;;;5053871;28;20384;-52
2021/05/24 14:05:08;;;;;;;1.00;1.00;;;;;;;;;;5053351;28;20915;-52
2021/05/24 14:07:34;;;;;;;2.63;1.17;;;;;;;;;;5053497;28;20935;-52
2021/05/24 14:10:00;;;;;;;1.23;1.13;;;;;;;;;;5053137;28;20409;-51
2021/05/24 14:12:26;;;;;;;1.03;1.00;;;;;;;;;;5053171;28;20770;-51
2021/05/24 14:14:52;;;;;;;1.00;0.90;;;;;;;;;;5053142;28;20430;-51
2021/05/24 14:17:18;;;;;;;1.87;1.20;;;;;;;;;;5053268;28;20811;-52
2021/05/24 14:19:44;;;;;;;0.97;0.90;;;;;;;;;;5053310;28;20372;-52
2021/05/24 14:22:13;;;;;;;1.40;1.30;;;;;;;;;;5052985;28;20882;-51
2021/05/24 14:24:39;;;;;;;1.20;1.07;;;;;;;;;;5053084;28;20465;-52
2021/05/24 14:27:05;;;;;;;0.90;0.90;;;;;;;;;;5052926;28;20434;-52
2021/05/24 14:29:32;;;;;;;1.40;1.30;;;;;;;;;;5052984;28;20402;-51
2021/05/24 14:31:58;;;;;;;1.20;1.10;;;;;;;;;;5052860;28;20394;-52
2021/05/24 14:34:24;;;;;;;1.27;1.17;;;;;;;;;;5052835;28;20499;-51
2021/05/24 14:36:50;;;;;;;1.40;1.30;;;;;;;;;;5052936;28;20388;-52
2021/05/24 14:39:17;;;;;;;2.27;1.33;;;;;;;;;;5052554;28;20810;-52
2021/05/24 14:41:43;;;;;;;1.23;1.17;;;;;;;;;;5052583;28;20401;-52
2021/05/24 14:44:09;;;;;;;3.17;1.10;;;;;;;;;;5051866;28;20380;-52
2021/05/24 14:46:35;;;;;;;1.40;1.30;;;;;;;;;;5052552;28;20874;-52
2021/05/24 14:49:02;;;;;;;1.10;1.10;;;;;;;;;;5052505;28;20898;-52
2021/05/24 14:51:32;;;;;;;1.23;1.10;;;;;;;;;;5052556;28;20376;-52
2021/05/24 14:54:00;;;;;;;1.00;1.00;;;;;;;;;;5051481;28;20738;-52
2021/05/24 14:56:26;;;;;;;2.70;1.10;;;;;;;;;;5052719;28;20413;-52
2021/05/24 14:58:52;;;;;;;1.33;1.17;;;;;;;;;;5052460;28;20811;-52